Time;durP1;ratioP1;P1;durP2;ratioP2;P2;SDS_P1;SDS_P2;PMS_P1;PMS_P2;Temp;Humidity;BMP_temperature;BMP_pressure;BME280_temperature;BME280_humidity;BME280_pressure;Samples;Min_cycle;Max_cycle;Signal;HPM_P1;HPM_P2
2024/03/21 00:01:36;;;;;;;21.67;14.25;;;;;;;;;;4965151;28;25060;-72
2024/03/21 00:04:02;;;;;;;19.77;13.88;;;;;;;;;;4979347;28;25058;-71
2024/03/21 00:06:29;;;;;;;17.85;13.00;;;;;;;;;;4965661;28;25164;-71
2024/03/21 00:08:56;;;;;;;21.20;13.68;;;;;;;;;;4966935;28;25072;-72
2024/03/21 00:11:22;;;;;;;19.75;12.98;;;;;;;;;;4963109;28;24981;-71
2024/03/21 00:13:48;;;;;;;21.48;14.05;;;;;;;;;;4960347;28;25170;-71
2024/03/21 00:16:14;;;;;;;18.17;13.45;;;;;;;;;;4966496;28;25133;-71
2024/03/21 00:18:39;;;;;;;23.83;16.65;;;;;;;;;;4969147;28;25087;-71
2024/03/21 00:21:06;;;;;;;18.55;14.30;;;;;;;;;;4968891;28;25073;-71
2024/03/21 00:23:32;;;;;;;20.73;15.00;;;;;;;;;;4956045;28;25068;-71
2024/03/21 00:26:01;;;;;;;18.08;13.90;;;;;;;;;;4964277;28;25075;-71
2024/03/21 00:28:28;;;;;;;24.27;14.35;;;;;;;;;;4958013;28;25099;-72
2024/03/21 00:30:58;;;;;;;21.92;14.80;;;;;;;;;;4964092;28;25097;-71
2024/03/21 00:33:24;;;;;;;21.67;13.75;;;;;;;;;;4960823;28;25130;-71
2024/03/21 00:35:50;;;;;;;20.30;13.63;;;;;;;;;;4961143;28;25073;-71
2024/03/21 00:38:17;;;;;;;18.38;13.43;;;;;;;;;;4961561;28;25085;-72
2024/03/21 00:40:43;;;;;;;18.27;13.23;;;;;;;;;;4965251;28;25065;-70
2024/03/21 00:43:09;;;;;;;19.25;13.55;;;;;;;;;;4964470;28;25069;-72
2024/03/21 00:45:35;;;;;;;21.48;13.32;;;;;;;;;;4963302;28;25063;-71
2024/03/21 00:48:02;;;;;;;20.33;13.30;;;;;;;;;;4966008;28;25155;-72
2024/03/21 00:50:29;;;;;;;20.95;13.93;;;;;;;;;;4961454;28;25052;-71
2024/03/21 00:52:55;;;;;;;19.40;12.63;;;;;;;;;;4966488;28;25050;-71
2024/03/21 00:55:21;;;;;;;23.92;15.07;;;;;;;;;;4970286;28;25103;-72
2024/03/21 00:57:47;;;;;;;21.45;15.02;;;;;;;;;;4968243;28;25055;-71
2024/03/21 01:00:13;;;;;;;20.17;14.07;;;;;;;;;;4971626;28;25148;-71
2024/03/21 01:02:40;;;;;;;20.77;14.52;;;;;;;;;;4962262;28;25094;-71
2024/03/21 01:05:06;;;;;;;21.98;14.82;;;;;;;;;;4963270;28;25086;-71
2024/03/21 01:07:32;;;;;;;21.77;15.07;;;;;;;;;;4960072;28;25057;-71
2024/03/21 01:09:58;;;;;;;23.98;15.10;;;;;;;;;;4963813;28;25068;-71
2024/03/21 01:12:25;;;;;;;20.77;14.98;;;;;;;;;;4964012;28;25116;-69
2024/03/21 01:14:51;;;;;;;20.55;15.00;;;;;;;;;;4959263;28;25077;-72
2024/03/21 01:17:18;;;;;;;22.85;15.20;;;;;;;;;;4953296;28;25058;-72
2024/03/21 01:19:47;;;;;;;23.90;15.20;;;;;;;;;;4964156;28;25052;-71
2024/03/21 01:22:13;;;;;;;22.77;16.20;;;;;;;;;;4960681;28;25136;-72
2024/03/21 01:24:39;;;;;;;20.30;14.90;;;;;;;;;;4963502;28;25070;-71
2024/03/21 01:27:05;;;;;;;27.42;16.73;;;;;;;;;;4965360;28;25061;-71
2024/03/21 01:29:33;;;;;;;26.98;16.23;;;;;;;;;;4960334;28;25057;-72
2024/03/21 01:31:59;;;;;;;24.05;17.13;;;;;;;;;;4966478;28;25090;-72
2024/03/21 01:34:25;;;;;;;26.60;17.98;;;;;;;;;;4961941;28;25148;-71
2024/03/21 01:36:53;;;;;;;28.73;18.55;;;;;;;;;;4961306;28;25432;-71
2024/03/21 01:39:19;;;;;;;29.88;19.38;;;;;;;;;;4963132;28;25071;-70
2024/03/21 01:41:45;;;;;;;29.55;18.63;;;;;;;;;;4961336;28;24900;-71
2024/03/21 01:44:15;;;;;;;31.40;19.20;;;;;;;;;;4965658;28;25091;-71
2024/03/21 01:46:41;;;;;;;27.98;20.05;;;;;;;;;;4969759;28;25065;-70
2024/03/21 01:49:07;;;;;;;36.20;20.98;;;;;;;;;;4964032;28;25069;-71
2024/03/21 01:51:34;;;;;;;40.42;22.63;;;;;;;;;;4954322;28;25112;-71
2024/03/21 01:54:00;;;;;;;35.33;20.58;;;;;;;;;;4965301;28;25070;-71
2024/03/21 01:56:26;;;;;;;33.50;21.55;;;;;;;;;;4965820;28;25082;-71
2024/03/21 01:58:52;;;;;;;33.28;22.55;;;;;;;;;;4962460;28;25075;-71
2024/03/21 02:01:31;;;;;;;31.33;21.33;;;;;;;;;;4964085;28;25058;-71
2024/03/21 02:03:59;;;;;;;36.72;22.25;;;;;;;;;;4957105;28;25075;-71
2024/03/21 02:06:25;;;;;;;34.85;21.38;;;;;;;;;;4958011;28;25060;-71
2024/03/21 02:08:54;;;;;;;34.03;21.95;;;;;;;;;;4964730;28;25060;-71
2024/03/21 02:11:22;;;;;;;36.92;23.00;;;;;;;;;;4974155;28;25076;-72
2024/03/21 02:13:49;;;;;;;39.45;23.80;;;;;;;;;;4972275;28;25472;-70
2024/03/21 02:16:15;;;;;;;45.33;26.15;;;;;;;;;;4970010;28;25066;-70
2024/03/21 02:18:41;;;;;;;43.15;26.33;;;;;;;;;;4984723;28;25102;-71
2024/03/21 02:22:35;;;;;;;44.25;28.00;;;;;;;;;;4976497;28;25062;-71
2024/03/21 02:23:53;;;;;;;49.60;29.52;;;;;;;;;;4973062;28;25107;-70
2024/03/21 02:26:19;;;;;;;52.67;31.38;;;;;;;;;;4971349;28;25091;-70
2024/03/21 02:28:47;;;;;;;57.53;33.10;;;;;;;;;;4971501;28;25091;-71
2024/03/21 02:31:13;;;;;;;58.95;31.33;;;;;;;;;;4975741;28;25125;-72
2024/03/21 02:33:39;;;;;;;49.78;32.65;;;;;;;;;;4983723;28;25103;-71
2024/03/21 02:36:05;;;;;;;51.78;32.35;;;;;;;;;;4987823;28;25066;-71
2024/03/21 02:38:31;;;;;;;55.78;33.47;;;;;;;;;;4992804;28;25096;-74
2024/03/21 02:40:57;;;;;;;58.80;34.50;;;;;;;;;;4989477;28;25052;-71
2024/03/21 02:43:23;;;;;;;62.00;34.95;;;;;;;;;;4975293;28;25101;-71
2024/03/21 02:45:49;;;;;;;60.22;34.47;;;;;;;;;;4966415;28;25055;-72
2024/03/21 02:48:15;;;;;;;58.10;35.97;;;;;;;;;;4968018;28;25084;-72
2024/03/21 02:50:41;;;;;;;57.30;36.42;;;;;;;;;;4963158;28;25136;-71
2024/03/21 02:53:07;;;;;;;54.63;34.25;;;;;;;;;;4964765;28;25070;-71
2024/03/21 02:55:33;;;;;;;56.80;33.58;;;;;;;;;;4970032;28;25124;-72
2024/03/21 02:57:59;;;;;;;54.58;33.60;;;;;;;;;;4956712;28;25062;-70
2024/03/21 03:00:25;;;;;;;53.75;32.50;;;;;;;;;;4967264;28;25082;-72
2024/03/21 03:02:51;;;;;;;52.38;30.20;;;;;;;;;;4958950;28;25067;-71
2024/03/21 03:05:17;;;;;;;46.17;28.35;;;;;;;;;;4965189;28;25163;-71
2024/03/21 03:07:43;;;;;;;53.63;28.38;;;;;;;;;;4963312;28;25082;-70
2024/03/21 03:10:09;;;;;;;44.50;28.73;;;;;;;;;;4967888;28;25077;-69
2024/03/21 03:12:35;;;;;;;43.35;29.35;;;;;;;;;;4963195;28;25100;-71
2024/03/21 03:15:03;;;;;;;42.03;28.63;;;;;;;;;;4956507;28;25100;-72
2024/03/21 03:17:29;;;;;;;50.67;31.10;;;;;;;;;;4960579;28;25101;-72
2024/03/21 03:19:55;;;;;;;48.72;28.73;;;;;;;;;;4960144;28;25192;-72
2024/03/21 03:22:22;;;;;;;43.58;28.73;;;;;;;;;;4956657;28;25100;-71
2024/03/21 03:24:48;;;;;;;40.75;25.48;;;;;;;;;;4966300;28;25058;-72
2024/03/21 03:27:13;;;;;;;37.22;25.85;;;;;;;;;;4965793;28;25062;-71
2024/03/21 03:29:39;;;;;;;37.70;23.23;;;;;;;;;;4959451;28;25076;-71
2024/03/21 03:32:06;;;;;;;31.90;21.58;;;;;;;;;;4963450;28;25084;-71
2024/03/21 03:37:16;;;;;;;32.33;20.15;;;;;;;;;;4961925;28;25055;-71
2024/03/21 03:39:42;;;;;;;26.27;18.55;;;;;;;;;;4962150;28;25192;-71
2024/03/21 03:42:09;;;;;;;21.02;16.52;;;;;;;;;;4964497;28;25104;-72
2024/03/21 03:44:35;;;;;;;22.40;16.80;;;;;;;;;;4963757;28;25051;-72
2024/03/21 03:47:01;;;;;;;21.95;16.80;;;;;;;;;;4960994;28;25066;-71
2024/03/21 03:49:27;;;;;;;20.38;14.52;;;;;;;;;;4961038;28;25082;-72
2024/03/21 03:51:54;;;;;;;24.73;16.52;;;;;;;;;;4973502;28;25099;-72
2024/03/21 03:54:21;;;;;;;25.40;16.15;;;;;;;;;;4974185;28;25100;-70
2024/03/21 03:56:47;;;;;;;17.73;14.25;;;;;;;;;;4981672;28;25069;-72
2024/03/21 03:59:14;;;;;;;21.13;15.07;;;;;;;;;;4970731;28;25066;-73
2024/03/21 04:01:41;;;;;;;21.80;16.63;;;;;;;;;;4971298;28;25091;-75
2024/03/21 04:04:07;;;;;;;24.98;17.02;;;;;;;;;;4978193;28;25123;-74
2024/03/21 04:06:33;;;;;;;19.35;15.73;;;;;;;;;;4970613;28;25125;-72
2024/03/21 04:08:59;;;;;;;18.70;16.70;;;;;;;;;;4966960;28;25070;-72
2024/03/21 04:11:25;;;;;;;21.23;16.40;;;;;;;;;;4960568;28;25070;-72
2024/03/21 04:13:51;;;;;;;23.80;18.95;;;;;;;;;;4965456;28;25080;-72
2024/03/21 04:16:18;;;;;;;24.42;21.48;;;;;;;;;;4963617;28;25123;-73
2024/03/21 04:18:44;;;;;;;29.65;21.30;;;;;;;;;;4967464;28;25125;-73
2024/03/21 04:21:11;;;;;;;27.98;20.33;;;;;;;;;;4971582;28;25075;-71
2024/03/21 04:23:37;;;;;;;26.58;20.63;;;;;;;;;;4970000;28;25073;-70
2024/03/21 04:26:03;;;;;;;19.77;15.65;;;;;;;;;;4964462;28;25105;-73
2024/03/21 04:28:29;;;;;;;20.60;15.63;;;;;;;;;;4960090;28;25053;-74
2024/03/21 04:30:55;;;;;;;27.13;17.65;;;;;;;;;;4958374;28;25075;-72
2024/03/21 04:33:21;;;;;;;26.13;15.80;;;;;;;;;;4958967;28;25074;-72
2024/03/21 04:35:47;;;;;;;26.00;16.05;;;;;;;;;;4959049;28;25071;-72
2024/03/21 04:38:13;;;;;;;24.92;15.30;;;;;;;;;;4955307;28;25081;-73
2024/03/21 04:40:39;;;;;;;27.95;18.83;;;;;;;;;;4959985;28;25061;-73
2024/03/21 04:43:05;;;;;;;28.95;17.67;;;;;;;;;;4963503;28;25163;-73
2024/03/21 04:45:31;;;;;;;32.33;20.00;;;;;;;;;;4968847;28;25058;-71
2024/03/21 04:47:57;;;;;;;36.47;22.48;;;;;;;;;;4956801;28;25078;-71
2024/03/21 04:50:24;;;;;;;34.30;20.42;;;;;;;;;;4968907;28;25161;-71
2024/03/21 04:52:50;;;;;;;38.05;23.77;;;;;;;;;;4968476;28;25069;-71
2024/03/21 04:55:16;;;;;;;32.90;22.27;;;;;;;;;;4959015;28;25068;-72
2024/03/21 04:57:42;;;;;;;38.63;24.17;;;;;;;;;;4957310;28;25099;-70
2024/03/21 05:00:10;;;;;;;39.95;24.63;;;;;;;;;;4964625;28;25119;-71
2024/03/21 05:02:42;;;;;;;34.83;23.95;;;;;;;;;;4958563;28;25109;-72
2024/03/21 05:05:09;;;;;;;41.30;24.98;;;;;;;;;;4960313;28;25093;-75
2024/03/21 05:07:35;;;;;;;44.05;27.83;;;;;;;;;;4961225;28;25100;-70
2024/03/21 05:10:02;;;;;;;36.13;25.92;;;;;;;;;;4965981;28;25152;-71
2024/03/21 05:12:28;;;;;;;34.38;22.58;;;;;;;;;;4968582;28;25088;-73
2024/03/21 05:14:54;;;;;;;30.15;22.20;;;;;;;;;;4965529;28;25087;-70
2024/03/21 05:17:20;;;;;;;30.45;22.20;;;;;;;;;;4971440;28;25073;-71
2024/03/21 05:19:47;;;;;;;30.83;21.63;;;;;;;;;;4965454;28;25100;-72
2024/03/21 05:22:13;;;;;;;33.53;23.48;;;;;;;;;;4965145;28;25053;-72
2024/03/21 05:24:39;;;;;;;31.20;21.23;;;;;;;;;;4965226;28;25073;-72
2024/03/21 05:27:06;;;;;;;27.80;21.17;;;;;;;;;;4965309;28;25064;-72
2024/03/21 05:29:32;;;;;;;23.55;18.25;;;;;;;;;;4962305;28;25171;-70
2024/03/21 05:31:58;;;;;;;21.77;15.68;;;;;;;;;;4970024;28;25086;-71
2024/03/21 05:34:24;;;;;;;17.70;14.05;;;;;;;;;;4973445;28;25061;-72
2024/03/21 05:36:50;;;;;;;20.40;14.20;;;;;;;;;;4958379;28;25137;-74
2024/03/21 05:39:16;;;;;;;21.67;14.00;;;;;;;;;;4965710;28;25076;-71
2024/03/21 05:41:43;;;;;;;20.40;15.23;;;;;;;;;;4961951;28;25085;-73
2024/03/21 05:44:09;;;;;;;19.25;13.18;;;;;;;;;;4957058;28;25070;-72
2024/03/21 05:46:35;;;;;;;15.52;12.25;;;;;;;;;;4965450;28;25054;-72
2024/03/21 05:49:01;;;;;;;19.73;12.27;;;;;;;;;;4961332;28;25105;-71
2024/03/21 05:51:27;;;;;;;16.77;11.00;;;;;;;;;;4971553;28;25063;-72
2024/03/21 05:53:53;;;;;;;16.05;11.75;;;;;;;;;;4964292;28;25077;-72
2024/03/21 05:56:19;;;;;;;21.42;11.23;;;;;;;;;;4966595;28;25102;-73
2024/03/21 05:58:45;;;;;;;16.95;11.55;;;;;;;;;;4966684;28;25115;-70
2024/03/21 06:03:41;;;;;;;18.88;12.02;;;;;;;;;;4964917;28;25054;-71
2024/03/21 06:06:07;;;;;;;21.20;11.68;;;;;;;;;;4965940;28;25071;-71
2024/03/21 06:08:34;;;;;;;18.08;10.07;;;;;;;;;;4968603;28;25048;-69
2024/03/21 06:11:00;;;;;;;16.35;10.30;;;;;;;;;;4961919;28;25076;-70
2024/03/21 06:13:26;;;;;;;12.95;7.93;;;;;;;;;;4967180;28;25065;-74
2024/03/21 06:15:52;;;;;;;12.40;6.15;;;;;;;;;;4970355;28;25084;-71
2024/03/21 06:18:18;;;;;;;17.92;6.40;;;;;;;;;;4960231;28;25092;-72
2024/03/21 06:20:45;;;;;;;10.10;5.25;;;;;;;;;;4962828;28;25132;-70
2024/03/21 06:23:11;;;;;;;16.05;5.28;;;;;;;;;;4960346;28;25059;-73
2024/03/21 06:25:37;;;;;;;11.63;4.40;;;;;;;;;;4959507;28;25061;-71
2024/03/21 06:28:04;;;;;;;16.40;4.95;;;;;;;;;;4959115;28;25055;-71
2024/03/21 06:30:31;;;;;;;12.25;4.38;;;;;;;;;;4965126;28;25062;-70
2024/03/21 06:32:57;;;;;;;17.15;4.78;;;;;;;;;;4960743;28;25133;-71
2024/03/21 06:35:23;;;;;;;13.20;4.30;;;;;;;;;;4961633;28;25063;-71
2024/03/21 06:37:52;;;;;;;12.70;4.32;;;;;;;;;;4960425;28;25110;-72
2024/03/21 06:40:21;;;;;;;11.02;3.97;;;;;;;;;;4962531;28;25072;-71
2024/03/21 06:42:47;;;;;;;16.15;4.35;;;;;;;;;;4961431;28;24771;-73
2024/03/21 06:45:13;;;;;;;7.35;3.90;;;;;;;;;;4963537;28;25147;-70
2024/03/21 06:47:39;;;;;;;7.55;4.05;;;;;;;;;;4963242;28;25043;-71
2024/03/21 06:50:06;;;;;;;13.27;4.65;;;;;;;;;;4964343;28;25078;-73
2024/03/21 06:52:34;;;;;;;8.80;3.78;;;;;;;;;;4957126;28;25165;-72
2024/03/21 06:55:00;;;;;;;10.55;2.90;;;;;;;;;;4957957;28;25104;-71
2024/03/21 06:57:26;;;;;;;12.02;3.55;;;;;;;;;;4961014;28;25108;-71
2024/03/21 06:59:52;;;;;;;14.43;3.45;;;;;;;;;;4972004;28;25050;-70
2024/03/21 07:02:21;;;;;;;9.20;2.72;;;;;;;;;;4968766;28;25191;-71
2024/03/21 07:04:47;;;;;;;12.25;2.90;;;;;;;;;;4956311;28;25063;-70
2024/03/21 07:07:13;;;;;;;9.18;2.47;;;;;;;;;;4970470;28;25083;-70
2024/03/21 07:09:39;;;;;;;18.20;3.67;;;;;;;;;;4983588;28;25073;-72
2024/03/21 07:12:05;;;;;;;11.55;3.03;;;;;;;;;;4965796;28;25070;-72
2024/03/21 07:14:34;;;;;;;12.38;3.55;;;;;;;;;;4966843;28;25052;-71
2024/03/21 07:17:01;;;;;;;16.85;2.92;;;;;;;;;;4965781;28;25056;-72
2024/03/21 07:19:36;;;;;;;11.75;3.38;;;;;;;;;;4959021;28;25138;-71
2024/03/21 07:22:05;;;;;;;9.00;3.25;;;;;;;;;;4956068;28;25107;-70
2024/03/21 07:24:32;;;;;;;12.25;3.20;;;;;;;;;;4972065;28;25137;-73
2024/03/21 07:26:58;;;;;;;7.03;2.38;;;;;;;;;;4960263;28;25158;-71
2024/03/21 07:29:24;;;;;;;11.68;3.10;;;;;;;;;;4961362;28;25054;-70
2024/03/21 07:31:50;;;;;;;16.20;3.50;;;;;;;;;;4956625;28;25085;-72
2024/03/21 07:34:16;;;;;;;10.40;3.38;;;;;;;;;;4959971;28;25085;-71
2024/03/21 07:36:42;;;;;;;13.77;3.15;;;;;;;;;;4969428;28;25115;-71
2024/03/21 07:39:08;;;;;;;11.10;3.55;;;;;;;;;;4963563;28;25067;-71
2024/03/21 07:41:34;;;;;;;12.07;4.90;;;;;;;;;;4960832;28;25067;-69
2024/03/21 07:44:01;;;;;;;8.25;3.45;;;;;;;;;;4965410;28;25055;-71
2024/03/21 07:46:29;;;;;;;12.30;3.65;;;;;;;;;;4970502;28;25079;-71
2024/03/21 07:48:55;;;;;;;8.88;3.03;;;;;;;;;;4965619;28;25055;-70
2024/03/21 07:51:21;;;;;;;22.10;4.90;;;;;;;;;;4989536;28;25162;-72
2024/03/21 07:53:47;;;;;;;9.48;3.33;;;;;;;;;;4980942;28;25076;-70
2024/03/21 07:56:13;;;;;;;8.77;3.00;;;;;;;;;;4980158;28;25069;-70
2024/03/21 07:58:39;;;;;;;7.82;3.10;;;;;;;;;;4995024;28;25066;-71
2024/03/21 08:01:05;;;;;;;9.48;3.53;;;;;;;;;;4966588;28;25090;-72
2024/03/21 08:03:31;;;;;;;19.02;4.13;;;;;;;;;;4969794;28;25070;-71
2024/03/21 08:05:57;;;;;;;8.00;3.40;;;;;;;;;;4962443;28;25055;-70
2024/03/21 08:08:23;;;;;;;9.00;3.33;;;;;;;;;;4960934;28;25095;-71
2024/03/21 08:10:49;;;;;;;11.75;3.25;;;;;;;;;;4966565;28;25064;-70
2024/03/21 08:13:15;;;;;;;7.05;2.97;;;;;;;;;;4963986;28;25064;-71
2024/03/21 08:15:41;;;;;;;8.88;3.60;;;;;;;;;;4966066;28;25115;-71
2024/03/21 08:18:07;;;;;;;13.05;3.80;;;;;;;;;;4964331;28;25163;-70
2024/03/21 08:20:33;;;;;;;5.13;3.10;;;;;;;;;;4971528;28;25065;-71
2024/03/21 08:22:59;;;;;;;8.70;3.38;;;;;;;;;;4969338;28;25170;-69
2024/03/21 08:25:25;;;;;;;5.45;2.28;;;;;;;;;;4968845;28;25104;-70
2024/03/21 08:27:51;;;;;;;8.23;2.90;;;;;;;;;;4959485;28;25050;-72
2024/03/21 08:30:18;;;;;;;12.13;3.05;;;;;;;;;;4963779;28;25074;-70
2024/03/21 08:32:44;;;;;;;12.52;2.90;;;;;;;;;;4958840;28;25048;-72
2024/03/21 08:35:10;;;;;;;10.05;2.97;;;;;;;;;;4968361;28;25075;-74
2024/03/21 08:37:36;;;;;;;13.90;3.28;;;;;;;;;;4966855;28;25106;-73
2024/03/21 08:40:02;;;;;;;8.50;2.78;;;;;;;;;;4963323;28;25098;-73
2024/03/21 08:42:29;;;;;;;8.23;2.90;;;;;;;;;;4960360;28;25189;-72
2024/03/21 08:44:55;;;;;;;7.55;2.53;;;;;;;;;;4963607;28;25073;-73
2024/03/21 08:47:22;;;;;;;13.70;3.10;;;;;;;;;;4963966;28;25129;-72
2024/03/21 08:49:50;;;;;;;10.30;2.80;;;;;;;;;;4965308;28;24926;-72
2024/03/21 08:52:16;;;;;;;9.73;3.17;;;;;;;;;;4973627;28;25079;-72
2024/03/21 08:54:42;;;;;;;18.98;3.50;;;;;;;;;;4963748;28;25098;-73
2024/03/21 08:57:08;;;;;;;7.30;3.05;;;;;;;;;;4965413;28;25053;-73
2024/03/21 08:59:34;;;;;;;14.45;3.15;;;;;;;;;;4971965;28;25100;-72
2024/03/21 09:02:04;;;;;;;11.52;2.75;;;;;;;;;;4959165;28;25067;-70
2024/03/21 09:04:30;;;;;;;10.52;3.05;;;;;;;;;;4962684;28;25081;-70
2024/03/21 09:06:56;;;;;;;8.65;3.70;;;;;;;;;;4960824;28;25098;-71
2024/03/21 09:09:22;;;;;;;7.32;2.63;;;;;;;;;;4963138;28;25083;-71
2024/03/21 09:11:48;;;;;;;8.05;2.50;;;;;;;;;;4967869;28;25052;-71
2024/03/21 09:14:14;;;;;;;10.35;3.42;;;;;;;;;;4968814;28;25073;-72
2024/03/21 09:16:40;;;;;;;8.02;3.47;;;;;;;;;;4964945;28;25056;-72
2024/03/21 09:19:06;;;;;;;14.90;2.97;;;;;;;;;;4963169;28;25144;-70
2024/03/21 09:21:32;;;;;;;6.32;2.80;;;;;;;;;;4966244;28;25050;-72
2024/03/21 09:23:58;;;;;;;4.45;2.78;;;;;;;;;;4962646;28;25108;-72
2024/03/21 09:26:24;;;;;;;7.30;2.67;;;;;;;;;;4974155;28;25078;-72
2024/03/21 09:28:50;;;;;;;9.57;2.97;;;;;;;;;;4966495;28;25068;-72
2024/03/21 09:31:16;;;;;;;6.53;2.70;;;;;;;;;;4969387;28;25116;-70
2024/03/21 09:33:42;;;;;;;8.52;3.08;;;;;;;;;;4963914;28;25169;-71
2024/03/21 09:36:09;;;;;;;8.48;2.60;;;;;;;;;;4968055;28;25084;-73
2024/03/21 09:38:35;;;;;;;10.05;2.53;;;;;;;;;;4968482;28;25046;-72
2024/03/21 09:41:01;;;;;;;7.20;3.38;;;;;;;;;;4962271;28;25081;-71
2024/03/21 09:43:30;;;;;;;7.10;3.58;;;;;;;;;;4965116;28;25065;-72
2024/03/21 09:45:56;;;;;;;9.63;3.15;;;;;;;;;;4960250;28;25056;-71
2024/03/21 09:48:22;;;;;;;4.20;2.63;;;;;;;;;;4978581;28;25061;-71
2024/03/21 09:50:49;;;;;;;7.75;2.58;;;;;;;;;;4970773;28;25064;-71
2024/03/21 09:53:19;;;;;;;7.13;2.63;;;;;;;;;;4973025;28;25101;-72
2024/03/21 09:55:45;;;;;;;5.80;2.72;;;;;;;;;;4971118;28;25078;-72
2024/03/21 09:58:12;;;;;;;14.02;3.13;;;;;;;;;;4971724;28;25060;-73
2024/03/21 10:00:38;;;;;;;13.68;2.60;;;;;;;;;;4972338;28;25093;-72
2024/03/21 10:03:05;;;;;;;12.02;2.65;;;;;;;;;;4966063;28;25063;-72
2024/03/21 10:05:31;;;;;;;10.18;3.38;;;;;;;;;;4962709;28;25102;-71
2024/03/21 10:07:57;;;;;;;4.15;2.60;;;;;;;;;;4959848;28;25067;-72
2024/03/21 10:10:23;;;;;;;9.40;2.72;;;;;;;;;;4971728;28;25158;-71
2024/03/21 10:12:49;;;;;;;10.50;2.42;;;;;;;;;;4963794;28;25051;-72
2024/03/21 10:15:17;;;;;;;12.07;2.63;;;;;;;;;;4969969;28;25073;-72
2024/03/21 10:17:43;;;;;;;9.02;3.08;;;;;;;;;;4963223;28;25070;-73
2024/03/21 10:20:09;;;;;;;10.63;2.72;;;;;;;;;;4965653;28;25089;-71
2024/03/21 10:22:36;;;;;;;7.43;2.38;;;;;;;;;;4972598;28;25064;-72
2024/03/21 10:25:06;;;;;;;7.43;2.50;;;;;;;;;;4973476;28;25107;-71
2024/03/21 10:27:32;;;;;;;8.73;3.17;;;;;;;;;;4965488;28;25061;-71
2024/03/21 10:29:58;;;;;;;7.90;2.70;;;;;;;;;;4972257;28;25110;-72
2024/03/21 10:32:25;;;;;;;10.40;2.88;;;;;;;;;;4967908;28;25060;-72
2024/03/21 10:34:52;;;;;;;12.25;4.28;;;;;;;;;;4977112;28;25074;-72
2024/03/21 10:37:19;;;;;;;11.82;3.15;;;;;;;;;;4978102;28;25079;-72
2024/03/21 10:39:46;;;;;;;9.35;3.90;;;;;;;;;;4972445;28;25077;-71
2024/03/21 10:42:17;;;;;;;10.38;3.50;;;;;;;;;;4981106;28;25132;-72
2024/03/21 10:44:44;;;;;;;9.73;3.88;;;;;;;;;;4983991;28;25079;-72
2024/03/21 10:47:11;;;;;;;6.63;3.08;;;;;;;;;;4978851;28;25102;-73
2024/03/21 10:49:37;;;;;;;6.47;2.90;;;;;;;;;;4980776;28;25059;-70
2024/03/21 10:52:05;;;;;;;4.50;2.72;;;;;;;;;;4982681;28;25053;-71
2024/03/21 10:54:37;;;;;;;8.52;2.85;;;;;;;;;;4971496;28;25074;-70
2024/03/21 10:57:15;;;;;;;7.57;3.10;;;;;;;;;;4965744;28;25103;-71
2024/03/21 10:59:42;;;;;;;6.03;2.53;;;;;;;;;;4963982;28;24865;-71
2024/03/21 11:02:13;;;;;;;6.80;3.75;;;;;;;;;;4971120;28;25048;-74
2024/03/21 11:04:41;;;;;;;9.07;4.18;;;;;;;;;;4971301;28;25070;-74
2024/03/21 11:07:07;;;;;;;5.95;3.63;;;;;;;;;;4967036;28;25065;-70
2024/03/21 11:09:34;;;;;;;7.68;3.60;;;;;;;;;;4965075;28;25052;-72
2024/03/21 11:12:00;;;;;;;8.07;4.50;;;;;;;;;;4965767;28;25061;-72
2024/03/21 11:14:26;;;;;;;6.55;4.07;;;;;;;;;;4967258;28;25105;-71
2024/03/21 11:16:55;;;;;;;7.07;4.05;;;;;;;;;;4963450;28;25147;-73
2024/03/21 11:19:24;;;;;;;10.52;4.25;;;;;;;;;;4965496;28;25077;-73
2024/03/21 11:21:50;;;;;;;8.45;4.80;;;;;;;;;;4961653;28;25066;-71
2024/03/21 11:24:16;;;;;;;10.50;4.93;;;;;;;;;;4966832;28;25149;-71
2024/03/21 11:26:42;;;;;;;10.60;5.32;;;;;;;;;;4963730;28;25087;-71
2024/03/21 11:29:12;;;;;;;12.35;7.13;;;;;;;;;;4962699;28;25115;-72
2024/03/21 11:31:42;;;;;;;11.43;8.68;;;;;;;;;;4964201;28;25135;-71
2024/03/21 11:34:08;;;;;;;15.75;9.88;;;;;;;;;;4966345;28;25100;-72
2024/03/21 11:36:34;;;;;;;19.25;10.48;;;;;;;;;;4961850;28;25087;-72
2024/03/21 11:39:00;;;;;;;16.52;9.82;;;;;;;;;;4966379;28;25088;-71
2024/03/21 11:41:27;;;;;;;13.57;10.43;;;;;;;;;;4964857;28;25057;-73
2024/03/21 11:43:54;;;;;;;13.95;11.75;;;;;;;;;;4967287;28;25068;-74
2024/03/21 11:46:20;;;;;;;18.17;13.45;;;;;;;;;;4961470;28;25066;-72
2024/03/21 11:49:06;;;;;;;23.13;13.00;;;;;;;;;;4967920;28;25049;-71
2024/03/21 11:51:33;;;;;;;19.48;12.57;;;;;;;;;;4966014;28;25077;-72
2024/03/21 11:54:03;;;;;;;18.02;11.40;;;;;;;;;;4979766;28;25107;-72
2024/03/21 11:56:30;;;;;;;16.83;12.02;;;;;;;;;;4971870;28;25075;-72
2024/03/21 11:58:56;;;;;;;14.57;10.73;;;;;;;;;;4978873;28;25103;-72
2024/03/21 12:01:22;;;;;;;18.48;11.73;;;;;;;;;;4984095;28;25076;-70
2024/03/21 12:03:48;;;;;;;18.60;11.88;;;;;;;;;;4977585;28;25069;-72
2024/03/21 12:06:14;;;;;;;13.18;11.88;;;;;;;;;;4974841;28;25094;-74
2024/03/21 12:08:40;;;;;;;15.32;13.73;;;;;;;;;;4971245;28;25089;-71
2024/03/21 12:11:12;;;;;;;16.27;14.68;;;;;;;;;;4962465;28;25062;-71
2024/03/21 12:13:39;;;;;;;23.60;18.33;;;;;;;;;;4972142;28;25144;-73
2024/03/21 12:16:05;;;;;;;25.00;20.27;;;;;;;;;;4973832;28;25064;-72
2024/03/21 12:18:31;;;;;;;18.55;16.85;;;;;;;;;;4970915;28;25078;-72
2024/03/21 12:20:57;;;;;;;22.77;19.48;;;;;;;;;;4970277;28;25069;-71
2024/03/21 12:23:24;;;;;;;28.15;25.02;;;;;;;;;;4969079;28;25124;-71
2024/03/21 12:25:50;;;;;;;30.25;25.02;;;;;;;;;;4965342;28;25077;-71
2024/03/21 12:28:16;;;;;;;30.88;27.50;;;;;;;;;;4966194;28;25051;-73
2024/03/21 12:30:42;;;;;;;26.63;23.92;;;;;;;;;;4967716;28;25177;-72
2024/03/21 12:33:10;;;;;;;31.48;27.98;;;;;;;;;;4968248;28;25069;-73
2024/03/21 12:35:36;;;;;;;31.83;28.55;;;;;;;;;;4964429;28;25050;-72
2024/03/21 12:38:02;;;;;;;31.30;27.95;;;;;;;;;;4959001;28;25084;-72
2024/03/21 12:40:28;;;;;;;36.17;27.58;;;;;;;;;;4964362;28;25086;-72
2024/03/21 12:42:56;;;;;;;33.33;29.88;;;;;;;;;;4966500;28;25106;-72
2024/03/21 12:45:22;;;;;;;30.73;26.95;;;;;;;;;;4966896;28;25072;-70
2024/03/21 12:47:51;;;;;;;32.80;25.30;;;;;;;;;;4963746;28;25090;-72
2024/03/21 12:50:17;;;;;;;28.17;25.10;;;;;;;;;;4970483;28;25075;-74
2024/03/21 12:52:43;;;;;;;30.67;23.92;;;;;;;;;;4975104;28;25080;-73
2024/03/21 12:55:09;;;;;;;30.17;23.52;;;;;;;;;;4970242;28;25063;-75
2024/03/21 12:57:35;;;;;;;22.10;18.55;;;;;;;;;;4965476;28;25063;-73
2024/03/21 13:00:01;;;;;;;24.85;19.05;;;;;;;;;;4967230;28;25135;-73
2024/03/21 13:02:27;;;;;;;21.65;19.20;;;;;;;;;;4956997;28;25049;-73
2024/03/21 13:04:53;;;;;;;23.35;20.55;;;;;;;;;;4967793;28;25116;-72
2024/03/21 13:07:19;;;;;;;22.83;20.20;;;;;;;;;;4962249;28;25111;-73
2024/03/21 13:09:45;;;;;;;20.05;17.38;;;;;;;;;;4963091;28;25073;-73
2024/03/21 13:12:11;;;;;;;23.52;14.02;;;;;;;;;;4958685;28;25052;-74
2024/03/21 13:14:37;;;;;;;15.63;12.38;;;;;;;;;;4958390;28;25059;-71
2024/03/21 13:17:03;;;;;;;18.98;12.55;;;;;;;;;;4962143;28;25143;-74
2024/03/21 13:19:31;;;;;;;15.82;10.38;;;;;;;;;;4964998;28;25095;-73
2024/03/21 13:21:58;;;;;;;10.98;9.48;;;;;;;;;;4969272;28;25098;-74
2024/03/21 13:24:24;;;;;;;17.02;8.65;;;;;;;;;;4963778;28;25099;-72
2024/03/21 13:26:50;;;;;;;12.80;8.15;;;;;;;;;;4963984;28;25095;-72
2024/03/21 13:29:16;;;;;;;12.75;7.07;;;;;;;;;;4966537;28;25087;-75
2024/03/21 13:31:43;;;;;;;11.65;6.95;;;;;;;;;;4965909;28;25101;-73
2024/03/21 13:34:09;;;;;;;11.05;6.47;;;;;;;;;;4968020;28;25050;-74
2024/03/21 13:36:34;;;;;;;7.93;6.50;;;;;;;;;;4962473;28;25078;-73
2024/03/21 13:39:04;;;;;;;9.77;6.20;;;;;;;;;;4969118;28;25059;-72
2024/03/21 13:41:30;;;;;;;8.52;5.57;;;;;;;;;;4964753;28;25063;-72
2024/03/21 13:43:56;;;;;;;7.00;5.80;;;;;;;;;;4966879;28;25057;-73
2024/03/21 13:46:22;;;;;;;6.68;5.10;;;;;;;;;;4968525;28;25075;-73
2024/03/21 13:48:49;;;;;;;7.35;5.97;;;;;;;;;;4964281;28;25085;-73
2024/03/21 13:51:16;;;;;;;7.28;6.03;;;;;;;;;;4967002;28;25142;-72
2024/03/21 13:53:41;;;;;;;9.60;6.18;;;;;;;;;;4969561;28;25094;-73
2024/03/21 13:56:08;;;;;;;11.57;5.40;;;;;;;;;;4966672;28;25071;-73
2024/03/21 13:58:34;;;;;;;6.70;5.30;;;;;;;;;;4960539;28;25040;-73
2024/03/21 14:01:00;;;;;;;5.28;4.78;;;;;;;;;;4968806;28;25068;-73
2024/03/21 14:03:26;;;;;;;5.93;4.80;;;;;;;;;;4963167;28;25073;-72
2024/03/21 14:05:52;;;;;;;6.07;4.45;;;;;;;;;;4965982;28;25062;-74
2024/03/21 14:08:19;;;;;;;9.02;5.35;;;;;;;;;;4965944;28;25060;-73
2024/03/21 14:10:45;;;;;;;7.28;5.05;;;;;;;;;;4962261;28;25119;-72
2024/03/21 14:13:14;;;;;;;7.40;5.15;;;;;;;;;;4965188;28;25093;-72
2024/03/21 14:15:40;;;;;;;11.27;7.43;;;;;;;;;;4967709;28;25122;-72
2024/03/21 14:18:06;;;;;;;8.13;5.35;;;;;;;;;;4961202;28;25075;-73
2024/03/21 14:20:32;;;;;;;9.50;5.78;;;;;;;;;;4963344;28;25056;-73
2024/03/21 14:22:58;;;;;;;9.20;5.70;;;;;;;;;;4968429;28;25055;-73
2024/03/21 14:25:24;;;;;;;8.07;4.72;;;;;;;;;;4967375;28;25105;-75
2024/03/21 14:27:50;;;;;;;12.20;5.57;;;;;;;;;;4963130;28;25078;-73